Jennifer — WDF6480 — position and weather

sailwx.info

Track history (hours):
 
Tides and Currents Weather Stations Pressure Air Temp Water Temp Dewpoint Dewpoint Depression Visibility Wind Speed Wind Dir Waves Ship Positions

Jennifer

Owner: John W. Stone Oil Distributor, L.L.C., Gretna, LA. More information available from US FCC via Universal Licensing System and Coast Guard Vessel Documentation Center.

Last reported at 2017-Jun-06 13:19 UTC. Time now 2017-Aug-17 17:21 UTC.
Position N 29°33' W 090°27'.
Warning: this ship's position is months out of date.

Length 17 m; draft 3 m.

Type: Tug. MMSI: 367474690.

Date/timePositionNaut miles runAvg speedWind from/ knotsBaromVisibWave heightAir tempDewpointWater temp
2017-Jun-06 13:19N 29°33' W 090°27'2 6.1
2017-Jun-06 12:59N 29°34' W 090°29'3 6.1
2017-Jun-06 12:30N 29°34' W 090°32'3 5.6
2017-Jun-06 12:00N 29°35' W 090°35'3 5.4
2017-Jun-06 11:30N 29°35' W 090°38'3 5.6
2017-Jun-06 11:00N 29°37' W 090°41'2 4.8
2017-Jun-06 10:30N 29°35' W 090°43'0 1.0
2017-Jun-06 10:00N 29°34' W 090°43'0 0.0
2017-Jun-06 09:30N 29°34' W 090°43'0 0.0
2017-Jun-06 09:00N 29°34' W 090°43'0 0.0
2017-Jun-06 08:30N 29°34' W 090°43'0 0.1
2017-Jun-06 08:00N 29°34' W 090°43'3 5.3
2017-Jun-06 07:30N 29°33' W 090°45'4 7.8
2017-Jun-06 07:00N 29°32' W 090°50'61 5.0
2017-Jun-05 18:40N 29°50' W 091°57'1 7.1
2017-Jun-05 18:30N 29°50' W 091°59'4 7.5
2017-Jun-05 18:00N 29°49' W 092°03'4 7.0
2017-Jun-05 17:30N 29°48' W 092°06'4 7.2
2017-Jun-05 17:00N 29°47' W 092°10'1 1.1
2017-Jun-05 16:30N 29°47' W 092°11'0 0.0
2017-Jun-05 16:00N 29°47' W 092°11'0 0.0
2017-Jun-05 15:30N 29°47' W 092°11'0 0.0
2017-Jun-05 15:00N 29°47' W 092°11'0 0.0
2017-Jun-05 14:00N 29°47' W 092°11'0 0.0
2017-Jun-05 13:30N 29°47' W 092°11'0 0.0
2017-Jun-05 13:00N 29°47' W 092°11'0 0.0
2017-Jun-05 12:30N 29°47' W 092°11'0 0.0
2017-Jun-05 12:00N 29°47' W 092°11'0 0.0
2017-Jun-05 11:30N 29°47' W 092°11'0 0.0
2017-Jun-05 11:00N 29°47' W 092°11'0 0.0
2017-Jun-05 10:30N 29°47' W 092°11'0 0.0
2017-Jun-05 10:00N 29°47' W 092°11'0 0.0
2017-Jun-05 09:30N 29°47' W 092°11'0 0.0
2017-Jun-05 09:00N 29°47' W 092°11'2 4.0
2017-Jun-05 08:30N 29°47' W 092°09'3 6.3
2017-Jun-05 08:00N 29°48' W 092°05'6 6.4
2017-Jun-05 07:07N 29°50' W 091°59'55 3.0
2017-Jun-04 12:55N 29°36' W 090°58'3 5.1
2017-Jun-04 12:15N 29°33' W 090°55'1 5.3
2017-Jun-04 12:00N 29°33' W 090°54'3 5.2
2017-Jun-04 11:29N 29°32' W 090°51'3 5.4
2017-Jun-04 11:00N 29°32' W 090°48'2 4.6
2017-Jun-04 10:30N 29°33' W 090°45'2 4.5
2017-Jun-04 10:00N 29°34' W 090°43'2 4.3
2017-Jun-04 09:30N 29°36' W 090°43'1 1.8
2017-Jun-04 09:00N 29°37' W 090°42'0 0.0
2017-Jun-04 08:30N 29°37' W 090°42'0 0.1
2017-Jun-04 08:00N 29°37' W 090°42'0 0.4
2017-Jun-04 07:30N 29°37' W 090°42'2 4.7
2017-Jun-04 07:00N 29°36' W 090°39'3 5.0
2017-Jun-04 06:30N 29°35' W 090°37'2 5.0
2017-Jun-04 06:00N 29°34' W 090°34'  
2017-May-30 03:18N 29°58' W 090°16'  
Track history (hours):
 
Tides and Currents Weather Stations Pressure Air Temp Water Temp Dewpoint Dewpoint Depression Visibility Wind Speed Wind Dir Waves Ship Positions

Jennifer

Owner: John W. Stone Oil Distributor, L.L.C., Gretna, LA. More information available from US FCC via Universal Licensing System and Coast Guard Vessel Documentation Center.

Last reported at 2017-Jun-06 13:19 UTC. Time now 2017-Aug-17 17:21 UTC.
Position N 29°33' W 090°27'.
Warning: this ship's position is months out of date.

Length 17 m; draft 3 m.

Type: Tug. MMSI: 367474690.

Date/timePositionNaut miles runAvg speedWind from/ knotsBaromVisibWave heightAir tempDewpointWater temp
2017-Jun-06 13:19N 29°33' W 090°27'2 6.1
2017-Jun-06 12:59N 29°34' W 090°29'3 6.1
2017-Jun-06 12:30N 29°34' W 090°32'3 5.6
2017-Jun-06 12:00N 29°35' W 090°35'3 5.4
2017-Jun-06 11:30N 29°35' W 090°38'3 5.6
2017-Jun-06 11:00N 29°37' W 090°41'2 4.8
2017-Jun-06 10:30N 29°35' W 090°43'0 1.0
2017-Jun-06 10:00N 29°34' W 090°43'0 0.0
2017-Jun-06 09:30N 29°34' W 090°43'0 0.0
2017-Jun-06 09:00N 29°34' W 090°43'0 0.0
2017-Jun-06 08:30N 29°34' W 090°43'0 0.1
2017-Jun-06 08:00N 29°34' W 090°43'3 5.3
2017-Jun-06 07:30N 29°33' W 090°45'4 7.8
2017-Jun-06 07:00N 29°32' W 090°50'61 5.0
2017-Jun-05 18:40N 29°50' W 091°57'1 7.1
2017-Jun-05 18:30N 29°50' W 091°59'4 7.5
2017-Jun-05 18:00N 29°49' W 092°03'4 7.0
2017-Jun-05 17:30N 29°48' W 092°06'4 7.2
2017-Jun-05 17:00N 29°47' W 092°10'1 1.1
2017-Jun-05 16:30N 29°47' W 092°11'0 0.0
2017-Jun-05 16:00N 29°47' W 092°11'0 0.0
2017-Jun-05 15:30N 29°47' W 092°11'0 0.0
2017-Jun-05 15:00N 29°47' W 092°11'0 0.0
2017-Jun-05 14:00N 29°47' W 092°11'0 0.0
2017-Jun-05 13:30N 29°47' W 092°11'0 0.0
2017-Jun-05 13:00N 29°47' W 092°11'0 0.0
2017-Jun-05 12:30N 29°47' W 092°11'0 0.0
2017-Jun-05 12:00N 29°47' W 092°11'0 0.0
2017-Jun-05 11:30N 29°47' W 092°11'0 0.0
2017-Jun-05 11:00N 29°47' W 092°11'0 0.0
2017-Jun-05 10:30N 29°47' W 092°11'0 0.0
2017-Jun-05 10:00N 29°47' W 092°11'0 0.0
2017-Jun-05 09:30N 29°47' W 092°11'0 0.0
2017-Jun-05 09:00N 29°47' W 092°11'2 4.0
2017-Jun-05 08:30N 29°47' W 092°09'3 6.3
2017-Jun-05 08:00N 29°48' W 092°05'6 6.4
2017-Jun-05 07:07N 29°50' W 091°59'55 3.0
2017-Jun-04 12:55N 29°36' W 090°58'3 5.1
2017-Jun-04 12:15N 29°33' W 090°55'1 5.3
2017-Jun-04 12:00N 29°33' W 090°54'3 5.2
2017-Jun-04 11:29N 29°32' W 090°51'3 5.4
2017-Jun-04 11:00N 29°32' W 090°48'2 4.6
2017-Jun-04 10:30N 29°33' W 090°45'2 4.5
2017-Jun-04 10:00N 29°34' W 090°43'2 4.3
2017-Jun-04 09:30N 29°36' W 090°43'1 1.8
2017-Jun-04 09:00N 29°37' W 090°42'0 0.0
2017-Jun-04 08:30N 29°37' W 090°42'0 0.1
2017-Jun-04 08:00N 29°37' W 090°42'0 0.4
2017-Jun-04 07:30N 29°37' W 090°42'2 4.7
2017-Jun-04 07:00N 29°36' W 090°39'3 5.0
2017-Jun-04 06:30N 29°35' W 090°37'2 5.0
2017-Jun-04 06:00N 29°34' W 090°34'  
2017-May-30 03:18N 29°58' W 090°16'  

Dump ship's entire track history